Home > Products > Valid Products > TAF

000
FTUS45 KTWC 241720
TAFOLS
TAF
KOLS 241720Z 2418/2518 20008KT P6SM FEW090
     FM242200 23011G17KT P6SM BKN080
     FM250200 24005KT P6SM SCT080 SCT120
     FM250400 VRB04KT P6SM FEW080 SCT120=



000
FTUS45 KTWC 241720
TAFOLS
TAF
KOLS 241720Z 2418/2518 20008KT P6SM FEW090
     FM242200 23011G17KT P6SM BKN080
     FM250200 24005KT P6SM SCT080 SCT120
     FM250400 VRB04KT P6SM FEW080 SCT120=



000
FTUS45 KTWC 241720
TAFTUS
TAF
KTUS 241720Z 2418/2518 27007KT P6SM FEW100
     FM242200 30010KT P6SM BKN090
     FM250700 14007KT P6SM FEW090 SCT120=



000
FTUS45 KTWC 241720
TAFDUG
TAF
KDUG 241720Z 2418/2518 21011KT P6SM FEW090
     FM242100 23013G20KT P6SM SCT080
     FM250200 26011KT P6SM BKN080
     FM251000 VRB05KT P6SM FEW080 SCT110=



000
FTUS45 KTWC 241720
TAFOLS
TAFOLS
TAF
KOLS 241720Z 2418/2518 20008KT P6SM FEW090
     FM242200 23011G17KT P6SM BKN080
     FM250200 24005KT P6SM SCT080 SCT120
     FM250400 VRB04KT P6SM FEW080 SCT120=



000
FTUS45 KTWC 241120
TAFOLS
TAFOLS
TAF
KOLS 241120Z 2412/2512 VRB03KT P6SM SKC
     FM241700 20008KT P6SM FEW090 SCT250
     FM242200 23011G17KT P6SM BKN080
     FM250200 24005KT P6SM FEW080 SCT120=



000
FTUS45 KTWC 241120
TAFOLS
TAF
KOLS 241120Z 2412/2512 VRB03KT P6SM SKC
     FM241700 20008KT P6SM FEW090 SCT250
     FM242200 23011G17KT P6SM BKN080
     FM250200 24005KT P6SM FEW080 SCT120=



000
FTUS45 KTWC 241120
TAFDUG
TAF
KDUG 241120Z 2412/2512 11006KT P6SM SKC
     FM241700 21011KT P6SM FEW090
     FM242100 23013G20KT P6SM SCT080 BKN200
     FM250200 26011KT P6SM BKN080
     FM251000 VRB03KT P6SM FEW080 SCT110=



000
FTUS45 KTWC 241120
TAFTUS
TAF
KTUS 241120Z 2412/2512 14007KT P6SM SKC
     FM241800 27007KT P6SM FEW100 SCT250
     FM242200 30010KT P6SM BKN090
     FM250700 14007KT P6SM FEW090 SCT120=



000
FTUS45 KTWC 240520
TAFTUS
TAF
KTUS 240520Z 2406/2506 24005KT P6SM SKC
     FM241100 15006KT P6SM FEW250
     FM241900 28010KT P6SM FEW100 BKN250=



000
FTUS45 KTWC 240520
TAFDUG
TAF
KDUG 240520Z 2406/2506 35008KT P6SM FEW200
     FM240900 VRB04KT P6SM SCT200
     FM241700 23013G20KT P6SM FEW120 SCT200
     FM250200 26009KT P6SM SCT120 SCT200=



000
FTUS45 KTWC 240520
TAFDUG
TAF
KDUG 240520Z 2406/2506 35008KT P6SM FEW200
     FM240900 VRB04KT P6SM SCT200
     FM241700 23013G20KT P6SM FEW120 SCT200
     FM250200 26009KT P6SM SCT120 SCT200=



000
FTUS45 KTWC 240520
TAFOLS
TAF
KOLS 240520Z 2406/2506 VRB04KT P6SM FEW200
     FM241700 23011G17KT P6SM FEW120 SCT200
     FM250200 24005KT P6SM FEW120 SCT200=



000
FTUS45 KTWC 240520
TAFOLS
TAF
KOLS 240520Z 2406/2506 VRB04KT P6SM FEW200
     FM241700 23011G17KT P6SM FEW120 SCT200
     FM250200 24005KT P6SM FEW120 SCT200=



000
FTUS45 KTWC 240520
TAFTUS
TAF
KTUS 240520Z 2406/2506 24005KT P6SM SKC
     FM241100 15006KT P6SM FEW250
     FM241900 28010KT P6SM FEW100 BKN250=



000
FTUS45 KTWC 240520
TAFOLS
TAFOLS
TAF
KOLS 240520Z 2406/2506 VRB04KT P6SM FEW200
     FM241700 23011G17KT P6SM FEW120 SCT200
     FM250200 24005KT P6SM FEW120 SCT200=



000
FTUS45 KTWC 240520
TAFOLS
TAF
KOLS 240520Z 2406/2506 VRB04KT P6SM FEW200
     FM241700 23011G17KT P6SM FEW120 SCT200
     FM250200 24005KT P6SM FEW120 SCT200=



000
FTUS45 KTWC 232331
TAFOLS
TAF
KOLS 232331Z 2400/2424 26011G17KT P6SM SKC
     FM240300 VRB04KT P6SM SCT200
     FM241700 23011G17KT P6SM FEW120 SCT200=



000
FTUS45 KTWC 232331
TAFTUS
TAF
KTUS 232331Z 2400/2424 30009KT P6SM FEW150
     FM240600 20005KT P6SM FEW250
     FM241200 14007KT P6SM FEW150 SCT250
     FM241900 28010KT P6SM SCT100 SCT250=



000
FTUS45 KTWC 232331
TAFDUG
TAF
KDUG 232331Z 2400/2424 26014G22KT P6SM SKC
     FM240300 35008KT P6SM FEW200
     FM240800 VRB04KT P6SM SCT200
     FM241700 22012G18KT P6SM FEW120 SCT200=



000
FTUS45 KTWC 232331
TAFOLS
TAFOLS
TAF
KOLS 232331Z 2400/2424 26011G17KT P6SM SKC
     FM240300 VRB04KT P6SM SCT200
     FM241700 23011G17KT P6SM FEW120 SCT200=



000
FTUS45 KTWC 232331
TAFOLS
TAF
KOLS 232331Z 2400/2424 26011G17KT P6SM SKC
     FM240300 VRB04KT P6SM SCT200
     FM241700 23011G17KT P6SM FEW120 SCT200=



000
FTUS45 KTWC 231720
TAFTUS
TAF
KTUS 231720Z 2318/2418 VRB03KT P6SM SKC
     FM232000 29010KT P6SM FEW100 FEW250
     FM240700 14007KT P6SM FEW250=



000
FTUS45 KTWC 231720
TAFDUG
TAF
KDUG 231720Z 2318/2418 20011KT P6SM SKC
     FM231900 24014G22KT P6SM FEW090 FEW250
     FM240200 35009KT P6SM FEW250
     FM240800 VRB05KT P6SM FEW250=



000
FTUS45 KTWC 231720
TAFOLS
TAFOLS
TAF
KOLS 231720Z 2318/2418 19006KT P6SM SKC
     FM232000 24012G18KT P6SM FEW250
     FM240200 VRB04KT P6SM FEW250=



000
FTUS45 KTWC 231720
TAFOLS
TAF
KOLS 231720Z 2318/2418 19006KT P6SM SKC
     FM232000 24012G18KT P6SM FEW250
     FM240200 VRB04KT P6SM FEW250=



000
FTUS45 KTWC 231720
TAFOLS
TAF
KOLS 231720Z 2318/2418 19006KT P6SM SKC
     FM232000 24012G18KT P6SM FEW250
     FM240200 VRB04KT P6SM FEW250=



000
FTUS45 KTWC 231120
TAFOLS
TAF
KOLS 231120Z 2312/2412 VRB03KT P6SM SKC
     FM231600 19006KT P6SM SKC
     FM232000 24012G20KT P6SM FEW250
     FM240200 VRB04KT P6SM FEW250=



000
FTUS45 KTWC 231120
TAFTUS
TAF
KTUS 231120Z 2312/2412 26007KT P6SM SKC
     FM231600 VRB03KT P6SM SKC
     FM232000 29010KT P6SM SCT250
     FM240700 14007KT P6SM SCT250=



000
FTUS45 KTWC 231120
TAFOLS
TAF
KOLS 231120Z 2312/2412 VRB03KT P6SM SKC
     FM231600 19006KT P6SM SKC
     FM232000 24012G20KT P6SM FEW250
     FM240200 VRB04KT P6SM FEW250=



000
FTUS45 KTWC 231120
TAFDUG
TAF
KDUG 231120Z 2312/2412 02007KT P6SM SKC
     FM231600 20011KT P6SM SKC
     FM231900 24014G23KT P6SM SKC
     FM240200 35009KT P6SM FEW200=



000
FTUS45 KTWC 231120
TAFOLS
TAFOLS
TAF
KOLS 231120Z 2312/2412 VRB03KT P6SM SKC
     FM231600 19006KT P6SM SKC
     FM232000 24012G20KT P6SM FEW250
     FM240200 VRB04KT P6SM FEW250=



000
FTUS45 KTWC 231120
TAFOLS
TAFOLS
TAF
KOLS 231120Z 2312/2412 VRB03KT P6SM SKC
     FM231600 19006KT P6SM SKC
     FM232000 24012G20KT P6SM FEW250
     FM240200 VRB04KT P6SM FEW250=



000
FTUS45 KTWC 231120
TAFDUG
TAF
KDUG 231120Z 2312/2412 02007KT P6SM SKC
     FM231600 20011KT P6SM SKC
     FM231900 24014G23KT P6SM SKC
     FM240200 35009KT P6SM FEW200=



000
FTUS45 KTWC 231120
TAFTUS
TAF
KTUS 231120Z 2312/2412 26007KT P6SM SKC
     FM231600 VRB03KT P6SM SKC
     FM232000 29010KT P6SM SCT250
     FM240700 14007KT P6SM SCT250=



000
FTUS45 KTWC 230520
TAFDUG
TAF
KDUG 230520Z 2306/2406 30008KT P6SM SCT250
     FM231000 VRB04KT P6SM SCT250
     FM231700 24013G22KT P6SM FEW250
     FM240200 28009KT P6SM FEW250=



000
FTUS45 KTWC 230520
TAFTUS
TAF
KTUS 230520Z 2306/2406 27009KT P6SM SCT250
     FM230800 17007KT P6SM SCT250
     FM231600 29010KT P6SM SCT250
     FM240200 25006KT P6SM SCT250=



000
FTUS45 KTWC 230520
TAFOLS
TAF
KOLS 230520Z 2306/2406 24008KT P6SM SCT250
     FM230900 VRB04KT P6SM SCT250
     FM231800 24010G17KT P6SM FEW250
     FM240100 27006KT P6SM FEW250=



000
FTUS45 KTWC 230520
TAFOLS
TAF
KOLS 230520Z 2306/2406 24008KT P6SM SCT250
     FM230900 VRB04KT P6SM SCT250
     FM231800 24010G17KT P6SM FEW250
     FM240100 27006KT P6SM FEW250=



000
FTUS45 KTWC 230520
TAFOLS
TAFOLS
TAF
KOLS 230520Z 2306/2406 24008KT P6SM SCT250
     FM230900 VRB04KT P6SM SCT250
     FM231800 24010G17KT P6SM FEW250
     FM240100 27006KT P6SM FEW250=



000
FTUS45 KTWC 222329
TAFOLS
TAFOLS
TAF
KOLS 222329Z 2300/2324 22020G30KT P6SM FEW250
     FM230300 20010KT P6SM FEW090 SCT250
     FM230900 VRB04KT P6SM SCT250
     FM231800 22011G17KT P6SM FEW250=



000
FTUS45 KTWC 222329
TAFTUS
TAF
KTUS 222329Z 2300/2324 24018G26KT P6SM FEW150
     FM230200 27011KT P6SM FEW250
     FM230800 16007KT P6SM SCT250
     FM231600 25009KT P6SM FEW250=



000
FTUS45 KTWC 222329
TAFDUG
TAF
KDUG 222329Z 2300/2324 21022G32KT P6SM FEW250
     FM230200 25012G18KT P6SM SCT250
     FM230600 30008KT P6SM SCT250
     FM231200 VRB04KT P6SM SCT250
     FM231900 23013G20KT P6SM FEW250=



000
FTUS45 KTWC 222329
TAFOLS
TAF
KOLS 222329Z 2300/2324 22020G30KT P6SM FEW250
     FM230300 20010KT P6SM FEW090 SCT250
     FM230900 VRB04KT P6SM SCT250
     FM231800 22011G17KT P6SM FEW250=



000
FTUS45 KTWC 222329
TAFOLS
TAFOLS
TAF
KOLS 222329Z 2300/2324 22020G30KT P6SM FEW250
     FM230300 20010KT P6SM FEW090 SCT250
     FM230900 VRB04KT P6SM SCT250
     FM231800 22011G17KT P6SM FEW250=



000
FTUS45 KTWC 222329
TAFOLS
TAF
KOLS 222329Z 2300/2324 22020G30KT P6SM FEW250
     FM230300 20010KT P6SM FEW090 SCT250
     FM230900 VRB04KT P6SM SCT250
     FM231800 22011G17KT P6SM FEW250=



000
FTUS45 KTWC 222329
TAFOLS
TAF
KOLS 222329Z 2300/2324 22020G30KT P6SM FEW250
     FM230300 20010KT P6SM FEW090 SCT250
     FM230900 VRB04KT P6SM SCT250
     FM231800 22011G17KT P6SM FEW250=



000
FTUS45 KTWC 222329
TAFTUS
TAF
KTUS 222329Z 2300/2324 24018G26KT P6SM FEW150
     FM230200 27011KT P6SM FEW250
     FM230800 16007KT P6SM SCT250
     FM231600 25009KT P6SM FEW250=



000
FTUS45 KTWC 222329
TAFDUG
TAF
KDUG 222329Z 2300/2324 21022G32KT P6SM FEW250
     FM230200 25012G18KT P6SM SCT250
     FM230600 30008KT P6SM SCT250
     FM231200 VRB04KT P6SM SCT250
     FM231900 23013G20KT P6SM FEW250=



000
FTUS45 KTWC 222329
TAFOLS
TAF
KOLS 222329Z 2300/2324 22020G30KT P6SM FEW250
     FM230300 20010KT P6SM FEW090 SCT250
     FM230900 VRB04KT P6SM SCT250
     FM231800 22011G17KT P6SM FEW250=



000
FTUS45 KTWC 221727
TAFOLS
TAF
KOLS 221727Z 2218/2318 19017G25KT P6SM SCT250
     FM222000 21021G30KT P6SM FEW090 SCT250
     FM230300 22010KT P6SM FEW090 SCT250
     FM230700 VRB04KT P6SM SCT250=



000
FTUS45 KTWC 221727
TAFTUS
TAF
KTUS 221727Z 2218/2318 20013G20KT P6SM FEW250
     FM222000 24018G26KT P6SM FEW100 SCT250
     FM230200 27011KT P6SM FEW100 SCT250
     FM230700 14007KT P6SM SCT250=



000
FTUS45 KTWC 221727
TAFTUS
TAF
KTUS 221727Z 2218/2318 20013G20KT P6SM FEW250
     FM222000 24018G26KT P6SM FEW100 SCT250
     FM230200 27011KT P6SM FEW100 SCT250
     FM230700 14007KT P6SM SCT250=



000
FTUS45 KTWC 221727
TAFDUG
TAF
KDUG 221727Z 2218/2318 20019G27KT P6SM SCT250
     FM222000 21024G34KT P6SM FEW080 SCT250
     FM230300 25012KT P6SM FEW080 SCT250
     FM230800 VRB04KT P6SM SCT250=



000
FTUS45 KTWC 221727
TAFOLS
TAF
KOLS 221727Z 2218/2318 19017G25KT P6SM SCT250
     FM222000 21021G30KT P6SM FEW090 SCT250
     FM230300 22010KT P6SM FEW090 SCT250
     FM230700 VRB04KT P6SM SCT250=



000
FTUS45 KTWC 221727
TAFOLS
TAFOLS
TAF
KOLS 221727Z 2218/2318 19017G25KT P6SM SCT250
     FM222000 21021G30KT P6SM FEW090 SCT250
     FM230300 22010KT P6SM FEW090 SCT250
     FM230700 VRB04KT P6SM SCT250=



000
FTUS45 KTWC 221727
TAFDUG
TAF
KDUG 221727Z 2218/2318 20019G27KT P6SM SCT250
     FM222000 21024G34KT P6SM FEW080 SCT250
     FM230300 25012KT P6SM FEW080 SCT250
     FM230800 VRB04KT P6SM SCT250=



000
FTUS45 KTWC 221727
TAFOLS
TAF
KOLS 221727Z 2218/2318 19017G25KT P6SM SCT250
     FM222000 21021G30KT P6SM FEW090 SCT250
     FM230300 22010KT P6SM FEW090 SCT250
     FM230700 VRB04KT P6SM SCT250=



000
FTUS45 KTWC 221727
TAFOLS
TAF
KOLS 221727Z 2218/2318 19017G25KT P6SM SCT250
     FM222000 21021G30KT P6SM FEW090 SCT250
     FM230300 22010KT P6SM FEW090 SCT250
     FM230700 VRB04KT P6SM SCT250=



000
FTUS45 KTWC 221727
TAFOLS
TAFOLS
TAF
KOLS 221727Z 2218/2318 19017G25KT P6SM SCT250
     FM222000 21021G30KT P6SM FEW090 SCT250
     FM230300 22010KT P6SM FEW090 SCT250
     FM230700 VRB04KT P6SM SCT250=



000
FTUS45 KTWC 221509 AAA
TAFDUG
TAF AMD
KDUG 221509Z 2215/2312 18016G25KT P6SM SKC
     FM222000 21023G33KT P6SM FEW090 SCT200
     FM230300 35010KT P6SM FEW090 BKN200
     FM231000 VRB04KT P6SM SCT200=



000
FTUS45 KTWC 221128
TAFDUG
TAF
KDUG 221128Z 2212/2312 09007KT P6SM SKC
     FM221600 18015G25KT P6SM SCT200
     FM222000 21023G33KT P6SM FEW090 SCT200
     FM230300 35010KT P6SM FEW090 BKN200
     FM231000 VRB04KT P6SM SCT200=



000
FTUS45 KTWC 221128
TAFTUS
TAF
KTUS 221128Z 2212/2312 16006KT P6SM BKN250
     FM221700 19013G20KT P6SM FEW100 SCT250
     FM222000 23018G27KT P6SM SCT100 SCT250
     FM230200 20010KT P6SM FEW110 SCT250
     FM230700 14007KT P6SM SCT250=



000
FTUS45 KTWC 221128
TAFOLS
TAFOLS
TAF
KOLS 221128Z 2212/2312 VRB03KT P6SM SKC
     FM221600 17012G21KT P6SM FEW100 SCT250
     FM222000 21021G30KT P6SM SCT100 SCT250
     FM230300 23010KT P6SM FEW100 SCT250=



000
FTUS45 KTWC 221128
TAFOLS
TAF
KOLS 221128Z 2212/2312 VRB03KT P6SM SKC
     FM221600 17012G21KT P6SM FEW100 SCT250
     FM222000 21021G30KT P6SM SCT100 SCT250
     FM230300 23010KT P6SM FEW100 SCT250=



000
FTUS45 KTWC 221128
TAFDUG
TAF
KDUG 221128Z 2212/2312 09007KT P6SM SKC
     FM221600 18015G25KT P6SM SCT200
     FM222000 21023G33KT P6SM FEW090 SCT200
     FM230300 35010KT P6SM FEW090 BKN200
     FM231000 VRB04KT P6SM SCT200=



000
FTUS45 KTWC 221128
TAFTUS
TAF
KTUS 221128Z 2212/2312 16006KT P6SM BKN250
     FM221700 19013G20KT P6SM FEW100 SCT250
     FM222000 23018G27KT P6SM SCT100 SCT250
     FM230200 20010KT P6SM FEW110 SCT250
     FM230700 14007KT P6SM SCT250=



000
FTUS45 KTWC 221128
TAFOLS
TAF
KOLS 221128Z 2212/2312 VRB03KT P6SM SKC
     FM221600 17012G21KT P6SM FEW100 SCT250
     FM222000 21021G30KT P6SM SCT100 SCT250
     FM230300 23010KT P6SM FEW100 SCT250=



000
FTUS45 KTWC 221128
TAFOLS
TAF
KOLS 221128Z 2212/2312 VRB03KT P6SM SKC
     FM221600 17012G21KT P6SM FEW100 SCT250
     FM222000 21021G30KT P6SM SCT100 SCT250
     FM230300 23010KT P6SM FEW100 SCT250=



000
FTUS45 KTWC 221128
TAFOLS
TAF
KOLS 221128Z 2212/2312 VRB03KT P6SM SKC
     FM221600 17012G21KT P6SM FEW100 SCT250
     FM222000 21021G30KT P6SM SCT100 SCT250
     FM230300 23010KT P6SM FEW100 SCT250=



000
FTUS45 KTWC 220520
TAFOLS
TAF
KOLS 220520Z 2206/2306 22007KT P6SM SKC
     FM220800 VRB04KT P6SM SCT250
     FM221500 17012G21KT P6SM SCT250
     FM221900 21021G31KT P6SM FEW120 SCT250
     FM230300 23010KT P6SM SCT250=



000
FTUS45 KTWC 220520
TAFTUS
TAF
KTUS 220520Z 2206/2306 25005KT P6SM SKC
     FM220900 16006KT P6SM SCT250
     FM221700 19013G21KT P6SM SCT250
     FM222000 23019G29KT P6SM FEW130 SCT250
     FM230200 26010KT P6SM SCT250=



000
FTUS45 KTWC 220520
TAFOLS
TAF
KOLS 220520Z 2206/2306 22007KT P6SM SKC
     FM220800 VRB04KT P6SM SCT250
     FM221500 17012G21KT P6SM SCT250
     FM221900 21021G31KT P6SM FEW120 SCT250
     FM230300 23010KT P6SM SCT250=



000
FTUS45 KTWC 220520
TAFDUG
TAF
KDUG 220520Z 2206/2306 17008KT P6SM SKC
     FM220800 07007KT P6SM SKC
     FM221500 16015G25KT P6SM SCT250
     FM221900 21023G33KT P6SM SCT250
     FM230300 25011KT P6SM SCT250=



000
FTUS45 KTWC 220520
TAFDUG
TAF
KDUG 220520Z 2206/2306 17008KT P6SM SKC
     FM220800 07007KT P6SM SKC
     FM221500 16015G25KT P6SM SCT250
     FM221900 21023G33KT P6SM SCT250
     FM230300 25011KT P6SM SCT250=



000
FTUS45 KTWC 220520
TAFOLS
TAFOLS
TAF
KOLS 220520Z 2206/2306 22007KT P6SM SKC
     FM220800 VRB04KT P6SM SCT250
     FM221500 17012G21KT P6SM SCT250
     FM221900 21021G31KT P6SM FEW120 SCT250
     FM230300 23010KT P6SM SCT250=



000
FTUS45 KTWC 220520
TAFOLS
TAF
KOLS 220520Z 2206/2306 22007KT P6SM SKC
     FM220800 VRB04KT P6SM SCT250
     FM221500 17012G21KT P6SM SCT250
     FM221900 21021G31KT P6SM FEW120 SCT250
     FM230300 23010KT P6SM SCT250=



000
FTUS45 KTWC 220520
TAFTUS
TAF
KTUS 220520Z 2206/2306 25005KT P6SM SKC
     FM220900 16006KT P6SM SCT250
     FM221700 19013G21KT P6SM SCT250
     FM222000 23019G29KT P6SM FEW130 SCT250
     FM230200 26010KT P6SM SCT250=



000
FTUS45 KTWC 220520
TAFOLS
TAF
KOLS 220520Z 2206/2306 22007KT P6SM SKC
     FM220800 VRB04KT P6SM SCT250
     FM221500 17012G21KT P6SM SCT250
     FM221900 21021G31KT P6SM FEW120 SCT250
     FM230300 23010KT P6SM SCT250=



000
FTUS45 KTWC 220520
TAFOLS
TAFOLS
TAF
KOLS 220520Z 2206/2306 22007KT P6SM SKC
     FM220800 VRB04KT P6SM SCT250
     FM221500 17012G21KT P6SM SCT250
     FM221900 21021G31KT P6SM FEW120 SCT250
     FM230300 23010KT P6SM SCT250=



000
FTUS45 KTWC 212333
TAFOLS
TAFOLS
TAF
KOLS 212333Z 2200/2224 22020G29KT P6SM SCT130
     FM220300 22011KT P6SM FEW130
     FM220600 VRB04KT P6SM SKC
     FM221500 17012G21KT P6SM FEW250
     FM221900 20021G31KT P6SM FEW140 FEW250=



000
FTUS45 KTWC 212333
TAFDUG
TAF
KDUG 212333Z 2200/2224 22020G30KT P6SM FEW120
     FM220300 24011G15KT P6SM SKC
     FM220600 24007KT P6SM SKC
     FM221500 16015G25KT P6SM FEW250
     FM221900 21023G33KT P6SM FEW250=



000
FTUS45 KTWC 212333
TAFOLS
TAF
KOLS 212333Z 2200/2224 22020G29KT P6SM SCT130
     FM220300 22011KT P6SM FEW130
     FM220600 VRB04KT P6SM SKC
     FM221500 17012G21KT P6SM FEW250
     FM221900 20021G31KT P6SM FEW140 FEW250=



000
FTUS45 KTWC 212333
TAFTUS
TAF
KTUS 212333Z 2200/2224 24018G25KT P6SM FEW140
     FM220230 27010KT P6SM FEW130
     FM220900 16007KT P6SM SKC
     FM221700 19013G21KT P6SM FEW250
     FM222000 23018G28KT P6SM FEW140 FEW250=



000
FTUS45 KTWC 212333
TAFOLS
TAF
KOLS 212333Z 2200/2224 22020G29KT P6SM SCT130
     FM220300 22011KT P6SM FEW130
     FM220600 VRB04KT P6SM SKC
     FM221500 17012G21KT P6SM FEW250
     FM221900 20021G31KT P6SM FEW140 FEW250=



000
FTUS45 KTWC 212333
TAFTUS
TAF
KTUS 212333Z 2200/2224 24018G25KT P6SM FEW140
     FM220230 27010KT P6SM FEW130
     FM220900 16007KT P6SM SKC
     FM221700 19013G21KT P6SM FEW250
     FM222000 23018G28KT P6SM FEW140 FEW250=



000
FTUS45 KTWC 212333
TAFOLS
TAF
KOLS 212333Z 2200/2224 22020G29KT P6SM SCT130
     FM220300 22011KT P6SM FEW130
     FM220600 VRB04KT P6SM SKC
     FM221500 17012G21KT P6SM FEW250
     FM221900 20021G31KT P6SM FEW140 FEW250=



000
FTUS45 KTWC 212333
TAFOLS
TAF
KOLS 212333Z 2200/2224 22020G29KT P6SM SCT130
     FM220300 22011KT P6SM FEW130
     FM220600 VRB04KT P6SM SKC
     FM221500 17012G21KT P6SM FEW250
     FM221900 20021G31KT P6SM FEW140 FEW250=



000
FTUS45 KTWC 212333
TAFDUG
TAF
KDUG 212333Z 2200/2224 22020G30KT P6SM FEW120
     FM220300 24011G15KT P6SM SKC
     FM220600 24007KT P6SM SKC
     FM221500 16015G25KT P6SM FEW250
     FM221900 21023G33KT P6SM FEW250=



000
FTUS45 KTWC 212333
TAFOLS
TAFOLS
TAF
KOLS 212333Z 2200/2224 22020G29KT P6SM SCT130
     FM220300 22011KT P6SM FEW130
     FM220600 VRB04KT P6SM SKC
     FM221500 17012G21KT P6SM FEW250
     FM221900 20021G31KT P6SM FEW140 FEW250=



000
FTUS45 KTWC 211736
TAFOLS
TAF
KOLS 211736Z 2118/2218 19015G23KT P6SM SCT130 BKN250
     FM211930 22020G30KT P6SM SCT130 BKN250
     FM220200 22012KT P6SM SCT250
     FM220500 16006KT P6SM FEW250
     FM221500 17012KT P6SM FEW250=



000
FTUS45 KTWC 211736
TAFDUG
TAF
KDUG 211736Z 2118/2218 17014G22KT P6SM SCT130 BKN250
     FM211900 21022G32KT P6SM SCT130 BKN250
     FM220300 23012G18KT P6SM FEW130 SCT250
     FM220600 24007KT P6SM FEW250
     FM221500 19013KT P6SM FEW250=



000
FTUS45 KTWC 211736
TAFTUS
TAF
KTUS 211736Z 2118/2218 20008KT P6SM SCT150 BKN250
     FM211900 20016G24KT P6SM SCT140 BKN250
     FM212200 22018G28KT P6SM FEW140 BKN250
     FM220300 27010KT P6SM SCT250
     FM220600 23005KT P6SM FEW250
     FM221500 18011KT P6SM FEW250=



000
FTUS45 KTWC 211736
TAFOLS
TAFOLS
TAF
KOLS 211736Z 2118/2218 19015G23KT P6SM SCT130 BKN250
     FM211930 22020G30KT P6SM SCT130 BKN250
     FM220200 22012KT P6SM SCT250
     FM220500 16006KT P6SM FEW250
     FM221500 17012KT P6SM FEW250=



    US Dept of Commerce
    National Oceanic and Atmospheric Administration
    National Weather Service
    1325 East West Highway
    Silver Spring, MD 20910
    Page Author: NWS Internet Services Team
Disclaimer
Information Quality
Credits
Glossary
Privacy Policy
Freedom of Information Act (FOIA)
About Us
Career Opportunities